Time;durP1;ratioP1;P1;durP2;ratioP2;P2;SDS_P1;SDS_P2;PMS_P1;PMS_P2;Temp;Humidity;BMP_temperature;BMP_pressure;BME280_temperature;BME280_humidity;BME280_pressure;Samples;Min_cycle;Max_cycle;Signal;HPM_P1;HPM_P2
2023/01/02 00:01:33;;;;;;;;;;;;;;;11.63;65.78;99669.84;4334528;33;19994;-93
2023/01/02 00:03:58;;;;;;;;;;;;;;;11.13;67.59;99669.38;4333742;33;19989;-93
2023/01/02 00:06:24;;;;;;;;;;;;;;;11.31;67.33;99674.78;4333317;33;19980;-89
2023/01/02 00:08:49;;;;;;;;;;;;;;;11.36;67.07;99670.16;4314415;33;20285;-87
2023/01/02 00:11:14;;;;;;;;;;;;;;;11.50;66.27;99659.84;4320422;33;20026;-88
2023/01/02 00:13:40;;;;;;;;;;;;;;;11.55;65.87;99664.91;4320436;33;20006;-91
2023/01/02 00:16:05;;;;;;;;;;;;;;;11.57;65.59;99660.41;4320505;33;20062;-92
2023/01/02 00:18:30;;;;;;;;;;;;;;;11.46;65.55;99658.28;4320276;33;19998;-91
2023/01/02 00:20:55;;;;;;;;;;;;;;;11.43;65.53;99658.41;4305972;33;19992;-85
2023/01/02 00:23:21;;;;;;;;;;;;;;;11.53;65.42;99650.94;4320560;33;19994;-80
2023/01/02 00:25:49;;;;;;;;;;;;;;;11.53;65.39;99654.44;4319861;33;20241;-84
2023/01/02 00:28:14;;;;;;;;;;;;;;;11.51;65.37;99656.31;4318800;33;19988;-84
2023/01/02 00:30:39;;;;;;;;;;;;;;;11.49;65.28;99652.88;4319242;33;19986;-84
2023/01/02 00:33:05;;;;;;;;;;;;;;;11.52;65.31;99647.44;4319564;33;20024;-85
2023/01/02 00:35:30;;;;;;;;;;;;;;;11.42;65.78;99651.44;4318699;33;20289;-84
2023/01/02 00:37:56;;;;;;;;;;;;;;;11.47;65.78;99657.34;4306099;33;20044;-84
2023/01/02 00:40:21;;;;;;;;;;;;;;;11.57;65.68;99660.41;4306019;33;20261;-83
2023/01/02 00:42:46;;;;;;;;;;;;;;;11.63;65.77;99662.81;4319709;33;20237;-84
2023/01/02 00:45:12;;;;;;;;;;;;;;;11.54;66.21;99664.06;4320365;33;20344;-84
2023/01/02 00:47:37;;;;;;;;;;;;;;;11.66;66.22;99672.38;4320373;33;20031;-84
2023/01/02 00:50:02;;;;;;;;;;;;;;;11.77;66.16;99659.53;4320304;33;20254;-84
2023/01/02 00:52:28;;;;;;;;;;;;;;;11.84;66.22;99666.25;4306949;33;19979;-84
2023/01/02 00:54:53;;;;;;;;;;;;;;;11.66;67.06;99665.28;4320057;33;20019;-84
2023/01/02 00:57:19;;;;;;;;;;;;;;;11.85;66.35;99672.41;4320217;33;19979;-84
2023/01/02 00:59:44;;;;;;;;;;;;;;;11.87;66.47;99679.31;4306896;33;20245;-85
2023/01/02 01:02:09;;;;;;;;;;;;;;;11.94;66.27;99661.44;4320177;33;19980;-85
2023/01/02 01:04:35;;;;;;;;;;;;;;;12.03;66.00;99668.94;4320044;33;20046;-84
2023/01/02 01:07:00;;;;;;;;;;;;;;;12.04;66.01;99669.81;4320187;33;19979;-84
2023/01/02 01:09:25;;;;;;;;;;;;;;;12.14;65.53;99665.78;4319903;33;20023;-85
2023/01/02 01:11:50;;;;;;;;;;;;;;;12.00;65.99;99653.25;4319992;33;19971;-84
2023/01/02 01:14:16;;;;;;;;;;;;;;;11.97;66.12;99648.09;4306479;33;20348;-85
2023/01/02 01:16:41;;;;;;;;;;;;;;;12.06;65.92;99657.37;4319867;33;20269;-84
2023/01/02 01:19:06;;;;;;;;;;;;;;;12.10;65.89;99653.66;4306551;33;19991;-83
2023/01/02 01:21:31;;;;;;;;;;;;;;;12.16;65.82;99656.88;4319650;33;19983;-83
2023/01/02 01:23:57;;;;;;;;;;;;;;;12.21;65.57;99651.37;4319879;33;19979;-83
2023/01/02 01:26:22;;;;;;;;;;;;;;;12.26;65.57;99665.19;4300739;33;189193;-83
2023/01/02 01:28:47;;;;;;;;;;;;;;;12.29;65.54;99667.72;4319782;33;19987;-84
2023/01/02 01:31:13;;;;;;;;;;;;;;;12.33;65.48;99661.34;4306495;33;19972;-83
2023/01/02 01:33:38;;;;;;;;;;;;;;;12.33;65.56;99650.78;4321688;33;19968;-84
2023/01/02 01:36:14;;;;;;;;;;;;;;;12.38;65.40;99648.78;4321904;33;19979;-83
2023/01/02 01:38:39;;;;;;;;;;;;;;;12.42;65.17;99640.69;4321721;33;19979;-84
2023/01/02 01:41:05;;;;;;;;;;;;;;;12.36;65.17;99645.38;4321538;33;20387;-84
2023/01/02 01:43:53;;;;;;;;;;;;;;;12.44;65.05;99644.13;4321909;33;19981;-84
2023/01/02 01:46:26;;;;;;;;;;;;;;;12.50;64.70;99630.63;4315273;33;20105;-84
2023/01/02 01:48:57;;;;;;;;;;;;;;;12.50;64.51;99620.91;4308171;33;19991;-84
2023/01/02 01:51:22;;;;;;;;;;;;;;;12.50;64.56;99612.13;4308207;33;19998;-83
2023/01/02 01:53:48;;;;;;;;;;;;;;;12.50;64.41;99610.34;4308107;33;20249;-83
2023/01/02 01:56:13;;;;;;;;;;;;;;;12.52;64.24;99613.75;4308028;33;20645;-83
2023/01/02 01:58:42;;;;;;;;;;;;;;;12.51;64.22;99608.53;4321338;33;19971;-83
2023/01/02 02:01:08;;;;;;;;;;;;;;;12.47;64.25;99604.34;4308088;33;20002;-83
2023/01/02 02:03:34;;;;;;;;;;;;;;;12.33;64.36;99597.94;4307907;33;20003;-83
2023/01/02 02:05:59;;;;;;;;;;;;;;;12.39;64.30;99600.28;4308079;33;20329;-83
2023/01/02 02:08:27;;;;;;;;;;;;;;;12.41;64.27;99594.06;4321266;33;19999;-84
2023/01/02 02:10:52;;;;;;;;;;;;;;;12.46;64.06;99597.31;4308056;33;19979;-83
2023/01/02 02:13:17;;;;;;;;;;;;;;;12.48;64.01;99595.50;4321272;33;19987;-84
2023/01/02 02:15:55;;;;;;;;;;;;;;;12.51;63.90;99595.31;4321209;33;20257;-84
2023/01/02 02:18:20;;;;;;;;;;;;;;;12.53;63.84;99582.87;4321208;33;20366;-84
2023/01/02 02:21:15;;;;;;;;;;;;;;;12.49;64.11;99582.19;4321040;33;19995;-83
2023/01/02 02:23:51;;;;;;;;;;;;;;;12.47;64.14;99583.19;4308438;33;19968;-84
2023/01/02 02:26:46;;;;;;;;;;;;;;;12.24;64.67;99579.88;4308140;33;19991;-84
2023/01/02 02:29:17;;;;;;;;;;;;;;;12.32;64.39;99582.16;4311146;33;19991;-84
2023/01/02 02:31:46;;;;;;;;;;;;;;;12.34;64.42;99582.94;4320914;33;20334;-85
2023/01/02 02:34:14;;;;;;;;;;;;;;;12.29;64.59;99575.25;4321149;33;19986;-84
2023/01/02 02:36:45;;;;;;;;;;;;;;;12.31;64.68;99570.75;4321119;33;19983;-84
2023/01/02 02:39:16;;;;;;;;;;;;;;;12.36;64.67;99573.13;4321287;33;19975;-85
2023/01/02 02:41:56;;;;;;;;;;;;;;;12.37;64.67;99581.00;4307831;33;19979;-84
2023/01/02 02:44:29;;;;;;;;;;;;;;;12.40;64.78;99582.66;4320326;33;20035;-84
2023/01/02 02:46:57;;;;;;;;;;;;;;;12.38;64.77;99584.50;4307827;33;19991;-85
2023/01/02 02:49:28;;;;;;;;;;;;;;;12.40;64.75;99569.44;4321126;33;19983;-85
2023/01/02 02:52:02;;;;;;;;;;;;;;;12.41;64.80;99576.41;4321074;33;20042;-85
2023/01/02 02:54:39;;;;;;;;;;;;;;;12.43;64.72;99587.78;4320993;33;19983;-82
2023/01/02 02:57:05;;;;;;;;;;;;;;;12.41;64.80;99578.22;4320922;33;20014;-83
2023/01/02 02:59:30;;;;;;;;;;;;;;;12.27;65.30;99577.09;4307717;33;20257;-83
2023/01/02 03:01:55;;;;;;;;;;;;;;;12.21;65.37;99580.06;4307451;33;20002;-83
2023/01/02 03:04:21;;;;;;;;;;;;;;;12.16;65.49;99582.06;4320770;33;19963;-85
2023/01/02 03:07:06;;;;;;;;;;;;;;;12.11;65.87;99579.66;4321054;33;20010;-86
2023/01/02 03:09:35;;;;;;;;;;;;;;;12.12;65.75;99577.84;4320679;33;19990;-84
2023/01/02 03:12:16;;;;;;;;;;;;;;;12.10;65.98;99569.16;4307859;33;20059;-85
2023/01/02 03:14:50;;;;;;;;;;;;;;;11.60;67.50;99566.13;4320828;33;19979;-85
2023/01/02 03:17:19;;;;;;;;;;;;;;;11.81;66.78;99572.22;4320862;33;20039;-85
2023/01/02 03:19:45;;;;;;;;;;;;;;;11.91;66.66;99569.16;4307486;33;20046;-85
2023/01/02 03:22:12;;;;;;;;;;;;;;;11.81;67.19;99574.84;4320917;33;20072;-85
2023/01/02 03:24:37;;;;;;;;;;;;;;;11.91;66.87;99572.66;4320862;33;19971;-85
2023/01/02 03:27:04;;;;;;;;;;;;;;;11.77;67.39;99570.62;4307455;33;20505;-85
2023/01/02 03:29:29;;;;;;;;;;;;;;;11.86;67.27;99579.03;4307564;33;19987;-85
2023/01/02 03:31:54;;;;;;;;;;;;;;;11.66;67.80;99577.34;4320668;33;19998;-85
2023/01/02 03:34:20;;;;;;;;;;;;;;;11.53;68.13;99575.28;4307334;33;20233;-85
2023/01/02 03:36:47;;;;;;;;;;;;;;;11.58;68.02;99564.50;4307544;33;20030;-85
2023/01/02 03:39:15;;;;;;;;;;;;;;;11.71;67.65;99556.88;4307410;33;20388;-84
2023/01/02 03:41:42;;;;;;;;;;;;;;;11.75;67.68;99563.72;4320654;33;20163;-85
2023/01/02 03:44:07;;;;;;;;;;;;;;;11.64;67.70;99563.38;4307348;33;19968;-85
2023/01/02 03:46:50;;;;;;;;;;;;;;;11.26;68.62;99565.97;4307503;33;19999;-85
2023/01/02 03:49:24;;;;;;;;;;;;;;;11.41;68.77;99568.78;4307528;33;20067;-85
2023/01/02 03:51:50;;;;;;;;;;;;;;;11.54;68.37;99565.59;4307689;33;20034;-85
2023/01/02 03:54:15;;;;;;;;;;;;;;;11.53;68.27;99575.28;4319002;33;20010;-85
2023/01/02 03:56:43;;;;;;;;;;;;;;;11.42;68.80;99564.38;4320658;33;20245;-85
2023/01/02 03:59:11;;;;;;;;;;;;;;;11.59;68.33;99566.25;4320696;33;20465;-85
2023/01/02 04:01:50;;;;;;;;;;;;;;;11.62;68.38;99563.44;4320550;33;19993;-85
2023/01/02 04:04:15;;;;;;;;;;;;;;;11.63;68.33;99569.56;4307273;33;19976;-85
2023/01/02 04:06:41;;;;;;;;;;;;;;;11.69;68.21;99575.44;4320508;33;19995;-85
2023/01/02 04:09:08;;;;;;;;;;;;;;;11.50;68.76;99571.94;4307260;33;19991;-84
2023/01/02 04:11:34;;;;;;;;;;;;;;;11.61;68.37;99577.56;4307186;33;19987;-83
2023/01/02 04:13:59;;;;;;;;;;;;;;;11.56;68.66;99575.13;4307324;33;19967;-85
2023/01/02 04:16:27;;;;;;;;;;;;;;;11.68;68.25;99571.06;4307132;33;20239;-85
2023/01/02 04:19:15;;;;;;;;;;;;;;;11.73;68.19;99566.44;4307167;33;19987;-86
2023/01/02 04:21:40;;;;;;;;;;;;;;;11.72;68.19;99554.16;4312491;33;19979;-85
2023/01/02 04:24:06;;;;;;;;;;;;;;;11.78;68.02;99571.50;4320629;33;20219;-86
2023/01/02 04:26:35;;;;;;;;;;;;;;;11.78;67.78;99572.38;4320290;33;20004;-86
2023/01/02 04:29:00;;;;;;;;;;;;;;;11.84;67.66;99573.87;4307004;33;19983;-85
2023/01/02 04:31:36;;;;;;;;;;;;;;;11.88;67.57;99571.91;4307016;33;20017;-85
2023/01/02 04:34:02;;;;;;;;;;;;;;;11.77;67.74;99573.28;4307061;33;19967;-85
2023/01/02 04:36:27;;;;;;;;;;;;;;;11.87;67.39;99583.41;4306976;33;20463;-85
2023/01/02 04:38:52;;;;;;;;;;;;;;;11.92;67.31;99584.09;4320237;33;20309;-85
2023/01/02 04:41:27;;;;;;;;;;;;;;;11.96;67.11;99589.16;4320141;33;19967;-85
2023/01/02 04:43:55;;;;;;;;;;;;;;;11.95;67.24;99591.84;4320043;33;20043;-85
2023/01/02 04:46:21;;;;;;;;;;;;;;;11.97;67.33;99584.72;4320138;33;19989;-85
2023/01/02 04:48:46;;;;;;;;;;;;;;;12.00;67.29;99577.50;4320213;33;19994;-85
2023/01/02 04:51:11;;;;;;;;;;;;;;;12.04;67.21;99578.22;4320087;33;20028;-84
2023/01/02 04:53:37;;;;;;;;;;;;;;;12.07;67.08;99577.22;4319815;33;19972;-84
2023/01/02 04:56:02;;;;;;;;;;;;;;;12.05;67.17;99568.50;4319997;33;19983;-85
2023/01/02 04:58:27;;;;;;;;;;;;;;;12.08;67.07;99574.50;4319951;33;20005;-85
2023/01/02 05:00:53;;;;;;;;;;;;;;;12.11;66.91;99579.66;4319902;33;20229;-85
2023/01/02 05:03:18;;;;;;;;;;;;;;;12.13;66.71;99580.44;4306642;33;19976;-85
2023/01/02 05:05:43;;;;;;;;;;;;;;;12.13;66.70;99580.44;4319733;33;19995;-83
2023/01/02 05:08:08;;;;;;;;;;;;;;;12.12;66.76;99588.41;4321555;33;19994;-87
2023/01/02 05:10:33;;;;;;;;;;;;;;;12.10;66.47;99583.19;4321633;33;19975;-87
2023/01/02 05:12:59;;;;;;;;;;;;;;;11.72;67.62;99587.63;4321559;33;19990;-87
2023/01/02 05:15:24;;;;;;;;;;;;;;;11.86;67.06;99581.69;4308354;33;20043;-85
2023/01/02 05:17:50;;;;;;;;;;;;;;;11.92;66.92;99579.66;4321648;33;20249;-87
2023/01/02 05:20:15;;;;;;;;;;;;;;;11.62;67.66;99581.91;4321533;33;20003;-85
2023/01/02 05:25:25;;;;;;;;;;;;;;;11.88;67.06;99575.44;4310430;33;19994;-86
2023/01/02 05:27:54;;;;;;;;;;;;;;;11.92;66.82;99563.81;4321611;33;19983;-82
2023/01/02 05:30:19;;;;;;;;;;;;;;;11.85;66.92;99572.91;4308376;33;20040;-86
2023/01/02 05:32:44;;;;;;;;;;;;;;;11.69;67.17;99570.16;4321452;33;20007;-87
2023/01/02 05:35:10;;;;;;;;;;;;;;;11.72;67.21;99575.28;4321439;33;20059;-85
2023/01/02 05:37:35;;;;;;;;;;;;;;;11.80;67.04;99578.44;4321475;33;20017;-86
2023/01/02 05:40:00;;;;;;;;;;;;;;;11.88;66.79;99570.16;4321357;33;20441;-83
2023/01/02 05:42:25;;;;;;;;;;;;;;;11.91;66.72;99570.00;4321363;33;20257;-85
2023/01/02 05:44:51;;;;;;;;;;;;;;;11.72;66.63;99575.28;4308063;33;19980;-84
2023/01/02 05:47:16;;;;;;;;;;;;;;;11.68;67.21;99572.84;4321394;33;20023;-83
2023/01/02 05:49:41;;;;;;;;;;;;;;;11.75;66.94;99576.94;4321362;33;19987;-83
2023/01/02 05:52:07;;;;;;;;;;;;;;;11.80;66.71;99573.16;4321392;33;20275;-79
2023/01/02 05:54:32;;;;;;;;;;;;;;;11.80;66.70;99577.53;4321272;33;19994;-83
2023/01/02 05:56:57;;;;;;;;;;;;;;;11.81;66.63;99581.91;4321424;33;19990;-83
2023/01/02 05:59:22;;;;;;;;;;;;;;;11.38;67.65;99582.13;4321359;33;20323;-82
2023/01/02 06:01:48;;;;;;;;;;;;;;;10.92;69.05;99583.28;4321284;33;19971;-83
2023/01/02 06:04:13;;;;;;;;;;;;;;;10.73;69.40;99584.06;4321220;33;19998;-83
2023/01/02 06:06:38;;;;;;;;;;;;;;;11.19;68.15;99576.78;4321299;33;19991;-85
2023/01/02 06:09:04;;;;;;;;;;;;;;;11.17;68.08;99565.47;4321246;33;19972;-82
2023/01/02 06:11:29;;;;;;;;;;;;;;;11.31;67.95;99570.12;4307994;33;20340;-83
2023/01/02 06:13:55;;;;;;;;;;;;;;;11.39;67.68;99562.69;4307990;33;19987;-83
2023/01/02 06:16:21;;;;;;;;;;;;;;;11.52;67.42;99564.81;4321443;33;20024;-82
2023/01/02 06:18:47;;;;;;;;;;;;;;;11.57;67.30;99560.16;4307955;33;19979;-82
2023/01/02 06:21:13;;;;;;;;;;;;;;;11.61;67.24;99565.22;4307787;33;20327;-82
2023/01/02 06:23:38;;;;;;;;;;;;;;;11.68;67.07;99565.78;4321355;33;20002;-82
2023/01/02 06:26:05;;;;;;;;;;;;;;;11.71;66.99;99565.66;4321306;33;19979;-82
2023/01/02 06:28:30;;;;;;;;;;;;;;;11.75;66.85;99572.50;4307981;33;19993;-81
2023/01/02 06:31:02;;;;;;;;;;;;;;;11.76;66.59;99562.78;4321033;33;20356;-83
2023/01/02 06:33:28;;;;;;;;;;;;;;;11.76;66.63;99570.72;4307906;33;19988;-82
2023/01/02 06:35:57;;;;;;;;;;;;;;;11.76;66.68;99570.72;4321196;33;19975;-82
2023/01/02 06:38:22;;;;;;;;;;;;;;;11.81;66.45;99568.72;4321159;33;20170;-82
2023/01/02 06:40:51;;;;;;;;;;;;;;;11.85;66.21;99572.06;4321044;33;20020;-82
2023/01/02 06:43:16;;;;;;;;;;;;;;;11.86;66.31;99571.12;4321022;33;19994;-82
2023/01/02 06:45:42;;;;;;;;;;;;;;;11.88;66.29;99569.28;4320802;33;19975;-82
2023/01/02 06:48:07;;;;;;;;;;;;;;;11.90;66.15;99556.88;4320999;33;19986;-82
2023/01/02 06:50:32;;;;;;;;;;;;;;;11.93;66.08;99562.88;4320963;33;19982;-82
2023/01/02 06:52:57;;;;;;;;;;;;;;;11.94;65.99;99567.25;4320989;33;20335;-82
2023/01/02 06:55:23;;;;;;;;;;;;;;;11.96;66.01;99568.03;4320963;33;20340;-82
2023/01/02 06:57:48;;;;;;;;;;;;;;;11.98;65.73;99565.31;4307693;33;20008;-82
2023/01/02 07:00:14;;;;;;;;;;;;;;;11.94;65.83;99574.31;4320838;33;19988;-82
2023/01/02 07:02:40;;;;;;;;;;;;;;;11.96;65.78;99570.66;4320953;33;20309;-82
2023/01/02 07:05:06;;;;;;;;;;;;;;;11.97;65.77;99572.34;4320917;33;19998;-82
2023/01/02 07:07:31;;;;;;;;;;;;;;;11.99;65.70;99577.56;4307654;33;19983;-82
2023/01/02 07:09:56;;;;;;;;;;;;;;;12.00;65.44;99577.50;4320882;33;20016;-82
2023/01/02 07:12:21;;;;;;;;;;;;;;;12.01;65.54;99581.00;4307625;33;20007;-82
2023/01/02 07:14:47;;;;;;;;;;;;;;;11.97;65.37;99580.28;4320854;33;20335;-82
2023/01/02 07:17:12;;;;;;;;;;;;;;;11.97;65.22;99593.47;4320518;33;19999;-82
2023/01/02 07:19:37;;;;;;;;;;;;;;;11.84;65.59;99596.75;4320776;33;20019;-82
2023/01/02 07:22:03;;;;;;;;;;;;;;;11.93;65.46;99593.72;4320861;33;19994;-82
2023/01/02 07:24:28;;;;;;;;;;;;;;;11.98;65.25;99597.00;4320759;33;19984;-82
2023/01/02 07:26:53;;;;;;;;;;;;;;;11.96;65.32;99591.78;4320973;33;19975;-82
2023/01/02 07:29:18;;;;;;;;;;;;;;;11.96;65.42;99589.16;4320100;33;19964;-81
2023/01/02 07:31:44;;;;;;;;;;;;;;;11.97;65.49;99600.56;4320495;33;20024;-82
2023/01/02 07:34:09;;;;;;;;;;;;;;;12.00;65.34;99598.63;4320734;33;19993;-82
2023/01/02 07:36:34;;;;;;;;;;;;;;;12.06;65.13;99599.28;4320782;33;20309;-81
2023/01/02 07:38:59;;;;;;;;;;;;;;;12.08;65.21;99597.41;4320771;33;19972;-82
2023/01/02 07:41:25;;;;;;;;;;;;;;;12.12;65.12;99598.97;4320575;33;20043;-82
2023/01/02 07:43:51;;;;;;;;;;;;;;;12.08;65.03;99597.41;4320781;33;19976;-82
2023/01/02 07:46:17;;;;;;;;;;;;;;;12.13;65.08;99595.41;4320719;33;19994;-82
2023/01/02 07:48:43;;;;;;;;;;;;;;;12.14;65.02;99589.19;4307285;33;19979;-81
2023/01/02 07:51:08;;;;;;;;;;;;;;;12.15;64.69;99594.41;4320608;33;19976;-82
2023/01/02 07:53:34;;;;;;;;;;;;;;;12.04;64.70;99601.12;4307366;33;20005;-82
2023/01/02 07:55:59;;;;;;;;;;;;;;;12.08;64.66;99597.41;4307383;33;19995;-81
2023/01/02 07:58:25;;;;;;;;;;;;;;;11.98;64.64;99603.13;4320590;33;19971;-81
2023/01/02 08:00:50;;;;;;;;;;;;;;;12.01;64.53;99602.13;4307125;33;19990;-82
2023/01/02 08:03:15;;;;;;;;;;;;;;;12.05;64.56;99600.19;4307367;33;20071;-80
2023/01/02 08:05:40;;;;;;;;;;;;;;;12.10;64.36;99603.47;4320641;33;20249;-82
2023/01/02 08:08:06;;;;;;;;;;;;;;;12.09;64.60;99599.13;4307289;33;19979;-82
2023/01/02 08:10:31;;;;;;;;;;;;;;;12.07;64.85;99601.84;4320222;33;20000;-82
2023/01/02 08:12:56;;;;;;;;;;;;;;;12.08;64.84;99597.41;4320470;33;19994;-82
2023/01/02 08:15:22;;;;;;;;;;;;;;;12.15;64.48;99597.06;4320458;33;19984;-82
2023/01/02 08:17:47;;;;;;;;;;;;;;;12.20;64.30;99594.19;4320403;33;20233;-82
2023/01/02 08:20:13;;;;;;;;;;;;;;;12.25;64.10;99589.53;4320323;33;20022;-82
2023/01/02 08:22:38;;;;;;;;;;;;;;;12.24;64.11;99594.88;4320511;33;20006;-82
2023/01/02 08:25:03;;;;;;;;;;;;;;;12.16;63.99;99597.91;4307081;33;19990;-82
2023/01/02 08:27:32;;;;;;;;;;;;;;;12.22;64.22;99600.25;4320378;33;19963;-82
2023/01/02 08:29:57;;;;;;;;;;;;;;;12.31;64.03;99593.66;4320347;33;20449;-82
2023/01/02 08:32:22;;;;;;;;;;;;;;;12.28;63.88;99591.16;4306890;33;19988;-82
2023/01/02 08:34:47;;;;;;;;;;;;;;;11.80;64.51;99593.38;4320233;33;19986;-82
2023/01/02 08:37:12;;;;;;;;;;;;;;;12.06;64.34;99589.56;4320210;33;19983;-81
2023/01/02 08:39:38;;;;;;;;;;;;;;;12.19;64.11;99598.63;4306818;33;20035;-82
2023/01/02 08:42:03;;;;;;;;;;;;;;;12.29;63.93;99598.19;4319020;33;20356;-83
2023/01/02 08:44:28;;;;;;;;;;;;;;;12.34;63.57;99597.03;4320143;33;19994;-83
2023/01/02 08:46:54;;;;;;;;;;;;;;;12.41;63.50;99596.72;4320006;33;19994;-83
2023/01/02 08:49:19;;;;;;;;;;;;;;;12.43;63.49;99592.22;4320079;33;19983;-83
2023/01/02 08:51:44;;;;;;;;;;;;;;;12.45;63.47;99600.91;4320038;33;20305;-83
2023/01/02 08:54:09;;;;;;;;;;;;;;;12.44;63.47;99599.19;4319900;33;19979;-83
2023/01/02 08:56:36;;;;;;;;;;;;;;;12.52;63.29;99604.97;4320042;33;19975;-83
2023/01/02 08:59:03;;;;;;;;;;;;;;;12.56;63.23;99606.53;4319922;33;19976;-83
2023/01/02 09:01:28;;;;;;;;;;;;;;;12.59;63.24;99611.66;4306654;33;19983;-81
2023/01/02 09:03:54;;;;;;;;;;;;;;;12.67;62.93;99600.69;4319928;33;20278;-81
2023/01/02 09:06:20;;;;;;;;;;;;;;;12.61;62.97;99604.50;4319903;33;19963;-80
2023/01/02 09:08:45;;;;;;;;;;;;;;;12.56;62.89;99606.53;4319872;33;20256;-80
2023/01/02 09:11:11;;;;;;;;;;;;;;;12.66;62.35;99594.56;4319797;33;19972;-80
2023/01/02 09:13:37;;;;;;;;;;;;;;;12.69;62.15;99597.06;4318731;33;20011;-80
2023/01/02 09:16:02;;;;;;;;;;;;;;;12.61;62.49;99595.72;4306372;33;20328;-80
2023/01/02 09:18:27;;;;;;;;;;;;;;;12.62;62.44;99602.72;4306292;33;20007;-80
2023/01/02 09:20:52;;;;;;;;;;;;;;;12.54;62.52;99603.97;4319533;33;19987;-80
2023/01/02 09:23:18;;;;;;;;;;;;;;;12.59;62.51;99609.88;4319598;33;19991;-82
2023/01/02 09:25:43;;;;;;;;;;;;;;;12.65;62.36;99605.19;4319536;33;20269;-82
2023/01/02 09:28:08;;;;;;;;;;;;;;;12.67;62.41;99598.94;4319607;33;19987;-82
2023/01/02 09:30:33;;;;;;;;;;;;;;;12.66;62.59;99594.56;4319518;33;19975;-82
2023/01/02 09:32:59;;;;;;;;;;;;;;;12.74;62.60;99591.53;4306135;33;19976;-82
2023/01/02 09:35:24;;;;;;;;;;;;;;;12.81;62.18;99590.28;4319432;33;19971;-80
2023/01/02 09:37:49;;;;;;;;;;;;;;;12.78;61.85;99585.16;4319155;33;19992;-81
2023/01/02 09:40:14;;;;;;;;;;;;;;;12.79;61.78;99578.94;4319319;33;20029;-82
2023/01/02 09:42:41;;;;;;;;;;;;;;;11.99;63.16;99575.81;4319357;33;20023;-81
2023/01/02 09:45:06;;;;;;;;;;;;;;;11.29;65.16;99582.53;4319280;33;19980;-81
2023/01/02 09:47:31;;;;;;;;;;;;;;;11.75;64.73;99579.56;4319238;33;19998;-81
2023/01/02 09:49:59;;;;;;;;;;;;;;;12.11;63.89;99578.75;4319187;33;19980;-81
2023/01/02 09:52:27;;;;;;;;;;;;;;;12.34;63.26;99567.06;4306474;33;19983;-81
2023/01/02 09:54:52;;;;;;;;;;;;;;;12.44;63.14;99563.06;4308167;33;20032;-82
2023/01/02 09:57:17;;;;;;;;;;;;;;;12.53;63.18;99562.59;4308097;33;19988;-82
2023/01/02 10:00:02;;;;;;;;;;;;;;;12.61;62.96;99551.63;4321435;33;20272;-81
2023/01/02 10:02:46;;;;;;;;;;;;;;;12.70;62.41;99558.25;4308202;33;19980;-81
2023/01/02 10:05:17;;;;;;;;;;;;;;;12.49;62.80;99553.09;4321263;33;20046;-81
2023/01/02 10:07:44;;;;;;;;;;;;;;;12.64;62.49;99548.00;4321372;33;20320;-81
2023/01/02 10:10:12;;;;;;;;;;;;;;;12.72;62.29;99545.81;4321365;33;20316;-81
2023/01/02 10:12:52;;;;;;;;;;;;;;;12.77;62.01;99543.78;4334151;33;19982;-81
2023/01/02 10:15:22;;;;;;;;;;;;;;;12.79;61.99;99544.56;4334755;33;20342;-81
2023/01/02 10:17:49;;;;;;;;;;;;;;;12.85;62.02;99546.03;4326264;33;20407;-82
2023/01/02 10:20:26;;;;;;;;;;;;;;;12.93;61.77;99547.34;4335906;33;19988;-81
2023/01/02 10:22:52;;;;;;;;;;;;;;;13.02;61.08;99542.50;4335867;33;20383;-81
2023/01/02 10:25:21;;;;;;;;;;;;;;;13.01;61.27;99541.66;4335843;33;19979;-81
2023/01/02 10:27:51;;;;;;;;;;;;;;;13.05;61.10;99537.06;4334646;33;20062;-82
2023/01/02 10:30:17;;;;;;;;;;;;;;;13.08;60.99;99524.53;4334739;33;19988;-81
2023/01/02 10:32:43;;;;;;;;;;;;;;;13.02;61.03;99530.16;4335530;33;20006;-81
2023/01/02 10:35:21;;;;;;;;;;;;;;;13.06;61.14;99523.75;4322414;33;19986;-81
2023/01/02 10:37:46;;;;;;;;;;;;;;;13.08;61.12;99515.75;4334619;33;20006;-81
2023/01/02 10:40:12;;;;;;;;;;;;;;;13.15;60.94;99511.81;4334474;33;20328;-81
2023/01/02 10:42:37;;;;;;;;;;;;;;;13.16;60.60;99513.53;4335702;33;19979;-81
2023/01/02 10:45:03;;;;;;;;;;;;;;;12.66;61.72;99517.06;4334483;33;20030;-80
2023/01/02 10:47:32;;;;;;;;;;;;;;;12.92;61.26;99510.38;4334427;33;19995;-81
2023/01/02 10:49:57;;;;;;;;;;;;;;;12.88;61.16;99508.84;4334517;33;19998;-81
2023/01/02 10:52:39;;;;;;;;;;;;;;;13.02;60.90;99502.81;4335530;33;20343;-81
2023/01/02 10:55:05;;;;;;;;;;;;;;;13.05;61.04;99489.44;4334269;33;19975;-81
2023/01/02 10:57:43;;;;;;;;;;;;;;;13.04;61.15;99488.59;4335703;33;20305;-81
2023/01/02 11:00:29;;;;;;;;;;;;;;;13.03;61.05;99486.88;4334208;33;20038;-82
2023/01/02 11:02:59;;;;;;;;;;;;;;;13.12;61.10;99485.53;4335715;33;20437;-81
2023/01/02 11:05:25;;;;;;;;;;;;;;;12.92;61.35;99486.59;4334987;33;19971;-81
2023/01/02 11:07:51;;;;;;;;;;;;;;;13.17;60.77;99488.78;4335909;33;19993;-81
2023/01/02 11:10:24;;;;;;;;;;;;;;;13.28;60.54;99481.13;4334547;33;19987;-80
2023/01/02 11:12:49;;;;;;;;;;;;;;;13.33;60.35;99484.41;4334289;33;20331;-81
2023/01/02 11:15:16;;;;;;;;;;;;;;;13.41;59.99;99478.69;4335542;33;20015;-81
2023/01/02 11:17:41;;;;;;;;;;;;;;;13.15;60.43;99475.66;4334404;33;20083;-81
2023/01/02 11:20:17;;;;;;;;;;;;;;;13.24;60.42;99469.00;4334168;33;19991;-81
2023/01/02 11:22:42;;;;;;;;;;;;;;;13.33;60.43;99471.16;4334613;33;20332;-81
2023/01/02 11:25:11;;;;;;;;;;;;;;;13.46;60.32;99463.41;4335453;33;20015;-81
2023/01/02 11:27:40;;;;;;;;;;;;;;;13.51;60.40;99463.16;4334488;33;20001;-81
2023/01/02 11:30:05;;;;;;;;;;;;;;;13.53;60.39;99454.19;4334567;33;20006;-82
2023/01/02 11:32:38;;;;;;;;;;;;;;;13.64;60.03;99452.75;4335542;33;19987;-82
2023/01/02 11:35:03;;;;;;;;;;;;;;;13.68;60.30;99452.47;4335604;33;19993;-81
2023/01/02 11:37:29;;;;;;;;;;;;;;;13.76;59.74;99457.31;4334494;33;20321;-82
2023/01/02 11:39:58;;;;;;;;;;;;;;;13.73;59.57;99454.84;4334226;33;19991;-82
2023/01/02 11:45:10;;;;;;;;;;;;;;;13.84;59.47;99446.28;4334418;33;19982;-82
2023/01/02 11:47:49;;;;;;;;;;;;;;;13.86;59.59;99428.53;4334214;33;19995;-82
2023/01/02 11:50:34;;;;;;;;;;;;;;;13.87;59.60;99430.22;4334291;33;19987;-81
2023/01/02 11:52:59;;;;;;;;;;;;;;;13.87;59.69;99419.63;4334949;33;19979;-80
2023/01/02 11:55:48;;;;;;;;;;;;;;;13.94;59.36;99413.87;4335307;33;19963;-82
2023/01/02 11:58:19;;;;;;;;;;;;;;;13.93;59.63;99417.47;4333153;33;20028;-82
2023/01/02 12:00:46;;;;;;;;;;;;;;;13.94;59.57;99407.72;4334026;33;20002;-82
2023/01/02 12:03:19;;;;;;;;;;;;;;;13.98;59.54;99409.25;4334221;33;19997;-82
2023/01/02 12:05:57;;;;;;;;;;;;;;;13.99;59.81;99407.47;4334065;33;20030;-82
2023/01/02 12:08:31;;;;;;;;;;;;;;;14.03;59.83;99409.00;4335118;33;20660;-82
2023/01/02 12:10:59;;;;;;;;;;;;;;;14.13;59.44;99412.81;4335259;33;19987;-82
2023/01/02 12:13:41;;;;;;;;;;;;;;;13.72;60.16;99414.28;4335244;33;19998;-82
2023/01/02 12:16:09;;;;;;;;;;;;;;;13.98;59.85;99406.59;4333865;33;19975;-81
2023/01/02 12:18:35;;;;;;;;;;;;;;;14.08;59.58;99407.78;4335020;33;20063;-81
2023/01/02 12:21:13;;;;;;;;;;;;;;;13.99;59.95;99399.53;4333777;33;20023;-82
2023/01/02 12:23:59;;;;;;;;;;;;;;;14.01;59.49;99408.25;4333905;33;20320;-82
2023/01/02 12:26:30;;;;;;;;;;;;;;;14.05;59.26;99409.75;4333982;33;20314;-82
2023/01/02 12:29:05;;;;;;;;;;;;;;;13.88;59.58;99401.00;4334950;33;19998;-82
2023/01/02 12:31:30;;;;;;;;;;;;;;;13.63;60.31;99406.00;4334861;33;19994;-82
2023/01/02 12:33:58;;;;;;;;;;;;;;;13.82;59.89;99401.34;4334857;33;20014;-82
2023/01/02 12:36:36;;;;;;;;;;;;;;;13.86;59.88;99400.22;4333794;33;19975;-82
2023/01/02 12:39:10;;;;;;;;;;;;;;;13.80;59.93;99400.59;4333801;33;19991;-82
2023/01/02 12:41:39;;;;;;;;;;;;;;;13.61;60.34;99413.19;4334712;33;20022;-81
2023/01/02 12:44:22;;;;;;;;;;;;;;;13.84;59.83;99407.41;4333628;33;20051;-82
2023/01/02 12:46:57;;;;;;;;;;;;;;;13.95;59.63;99394.41;4333680;33;19983;-82
2023/01/02 12:49:35;;;;;;;;;;;;;;;14.02;59.66;99401.97;4333611;33;19998;-82
2023/01/02 12:52:06;;;;;;;;;;;;;;;14.08;59.55;99388.38;4334777;33;19994;-82
2023/01/02 12:54:46;;;;;;;;;;;;;;;14.11;59.33;99393.50;4334666;33;19979;-82
2023/01/02 12:57:23;;;;;;;;;;;;;;;14.14;59.32;99390.69;4334639;33;20083;-81